Time;durP1;ratioP1;P1;durP2;ratioP2;P2;SDS_P1;SDS_P2;PMS_P1;PMS_P2;Temp;Humidity;BMP_temperature;BMP_pressure;BME280_temperature;BME280_humidity;BME280_pressure;Samples;Min_cycle;Max_cycle;Signal;HPM_P1;HPM_P2
2021/07/13 00:01:22;;;;;;;8.68;4.00;;;;;;;;;;8198493;28;20349;-70
2021/07/13 00:05:27;;;;;;;5.70;3.70;;;;;;;;;;8178687;28;20069;-70
2021/07/13 00:09:32;;;;;;;5.55;4.30;;;;;;;;;;8166530;28;20073;-71
2021/07/13 00:13:38;;;;;;;8.45;3.83;;;;;;;;;;8164980;28;20469;-71
2021/07/13 00:17:43;;;;;;;7.45;4.35;;;;;;;;;;8165775;28;20481;-72
2021/07/13 00:21:49;;;;;;;5.45;4.10;;;;;;;;;;8165819;28;20481;-71
2021/07/13 00:25:54;;;;;;;5.25;3.70;;;;;;;;;;8168073;28;20486;-70
2021/07/13 00:30:00;;;;;;;7.20;3.60;;;;;;;;;;8165797;28;20052;-71
2021/07/13 00:34:05;;;;;;;10.52;4.38;;;;;;;;;;8164215;28;20473;-71
2021/07/13 00:38:11;;;;;;;12.23;4.13;;;;;;;;;;8165119;28;20381;-72
2021/07/13 00:42:18;;;;;;;6.30;3.92;;;;;;;;;;8163528;28;20500;-69
2021/07/13 00:46:23;;;;;;;7.68;3.83;;;;;;;;;;8166317;28;20311;-70
2021/07/13 00:50:30;;;;;;;5.85;3.80;;;;;;;;;;8164029;28;20409;-71
2021/07/13 00:54:39;;;;;;;9.23;3.80;;;;;;;;;;8163839;28;20477;-72
2021/07/13 00:58:43;;;;;;;7.32;3.80;;;;;;;;;;8146164;28;20046;-69
2021/07/13 01:02:53;;;;;;;5.45;4.00;;;;;;;;;;8162736;28;20445;-70
2021/07/13 01:07:46;;;;;;;7.05;4.22;;;;;;;;;;8162755;28;20350;-72
2021/07/13 01:12:03;;;;;;;7.38;4.15;;;;;;;;;;8138666;28;20050;-72
2021/07/13 01:16:56;;;;;;;10.85;3.95;;;;;;;;;;8161710;28;20465;-69
2021/07/13 01:21:17;;;;;;;6.80;4.50;;;;;;;;;;8162330;28;20042;-69
2021/07/13 01:25:46;;;;;;;6.78;4.03;;;;;;;;;;8176597;28;20354;-70
2021/07/13 01:29:53;;;;;;;6.93;3.83;;;;;;;;;;8161064;28;20478;-69
2021/07/13 01:34:08;;;;;;;6.80;3.83;;;;;;;;;;8160652;28;20363;-71
2021/07/13 01:38:15;;;;;;;5.72;3.90;;;;;;;;;;8160501;28;20331;-69
2021/07/13 01:42:22;;;;;;;8.90;4.10;;;;;;;;;;8162790;28;20065;-69
2021/07/13 01:46:29;;;;;;;7.75;4.47;;;;;;;;;;8161431;28;20369;-71
2021/07/13 01:50:36;;;;;;;7.97;4.70;;;;;;;;;;8160289;28;20480;-70
2021/07/13 01:54:41;;;;;;;6.68;4.60;;;;;;;;;;8096213;28;1458055;-71
2021/07/13 01:58:47;;;;;;;7.07;4.65;;;;;;;;;;8162566;28;20492;-71
2021/07/13 02:02:54;;;;;;;10.73;5.47;;;;;;;;;;8161339;28;20350;-70
2021/07/13 02:07:01;;;;;;;7.57;5.18;;;;;;;;;;8161974;28;20350;-72
2021/07/13 02:11:09;;;;;;;7.15;4.63;;;;;;;;;;8162236;28;20454;-72
2021/07/13 02:15:14;;;;;;;;;;;;;;;;;;8163408;28;20376;-70
2021/07/13 02:19:21;;;;;;;8.07;5.03;;;;;;;;;;8162000;28;19925;-69
2021/07/13 02:23:27;;;;;;;9.37;5.07;;;;;;;;;;8163224;28;20488;-71
2021/07/13 02:27:35;;;;;;;10.45;5.20;;;;;;;;;;8160673;28;20064;-72
2021/07/13 02:31:49;;;;;;;6.70;5.18;;;;;;;;;;8162507;28;20478;-71
2021/07/13 02:36:04;;;;;;;8.02;5.05;;;;;;;;;;8161718;28;20446;-70
2021/07/13 02:40:12;;;;;;;9.07;5.15;;;;;;;;;;8162135;28;20054;-71
2021/07/13 02:44:20;;;;;;;10.50;5.82;;;;;;;;;;8161990;28;20046;-69
2021/07/13 02:48:26;;;;;;;14.43;6.40;;;;;;;;;;8160370;28;20346;-70
2021/07/13 02:52:33;;;;;;;9.95;7.10;;;;;;;;;;8161948;28;20417;-71
2021/07/13 02:56:41;;;;;;;15.18;6.82;;;;;;;;;;8159996;28;20458;-71
2021/07/13 03:00:46;;;;;;;;;;;;;;;;;;8161213;28;20050;-71
2021/07/13 03:04:53;;;;;;;12.10;6.63;;;;;;;;;;8176364;28;20345;-71
2021/07/13 03:08:58;;;;;;;11.30;7.72;;;;;;;;;;8176509;28;20466;-72
2021/07/13 03:13:03;;;;;;;12.45;7.63;;;;;;;;;;8159422;28;20046;-70
2021/07/13 03:17:11;;;;;;;12.35;7.07;;;;;;;;;;8159495;28;20458;-70
2021/07/13 03:21:22;;;;;;;17.87;8.23;;;;;;;;;;8159824;28;20463;-71
2021/07/13 03:25:33;;;;;;;13.95;7.63;;;;;;;;;;8158384;28;20378;-72
2021/07/13 03:29:39;;;;;;;12.77;7.90;;;;;;;;;;8174572;28;20370;-71
2021/07/13 03:33:45;;;;;;;13.05;7.60;;;;;;;;;;8159356;28;20042;-71
2021/07/13 03:37:52;;;;;;;20.10;8.35;;;;;;;;;;8158753;28;20409;-72
2021/07/13 03:41:59;;;;;;;13.60;7.25;;;;;;;;;;8175056;28;20393;-72
2021/07/13 03:46:04;;;;;;;12.10;6.97;;;;;;;;;;8158660;28;20362;-69
2021/07/13 03:50:11;;;;;;;13.85;7.90;;;;;;;;;;8160323;28;20409;-71
2021/07/13 03:54:20;;;;;;;15.07;8.70;;;;;;;;;;8174486;28;20678;-71
2021/07/13 03:58:25;;;;;;;14.38;9.38;;;;;;;;;;8159945;28;20469;-69
2021/07/13 04:02:30;;;;;;;17.55;10.32;;;;;;;;;;8174788;28;20480;-74
2021/07/13 04:06:36;;;;;;;21.20;11.15;;;;;;;;;;8160775;28;20466;-71
2021/07/13 04:10:41;;;;;;;17.75;9.07;;;;;;;;;;8174906;28;20405;-71
2021/07/13 04:14:47;;;;;;;22.38;10.27;;;;;;;;;;8176047;28;20494;-70
2021/07/13 04:18:52;;;;;;;19.23;9.18;;;;;;;;;;8159705;28;20474;-69
2021/07/13 04:22:57;;;;;;;26.48;9.73;;;;;;;;;;8161621;28;20495;-69
2021/07/13 04:27:04;;;;;;;22.58;9.82;;;;;;;;;;8160901;28;20074;-71
2021/07/13 04:31:09;;;;;;;19.20;9.85;;;;;;;;;;8159553;28;20462;-70
2021/07/13 04:35:14;;;;;;;17.27;9.90;;;;;;;;;;8159298;28;20328;-70
2021/07/13 04:39:20;;;;;;;20.85;10.68;;;;;;;;;;8177070;28;20346;-70
2021/07/13 04:43:25;;;;;;;22.23;10.48;;;;;;;;;;8166958;28;20369;-71
2021/07/13 04:47:30;;;;;;;22.83;11.18;;;;;;;;;;8181589;28;20369;-72
2021/07/13 04:51:36;;;;;;;20.55;9.98;;;;;;;;;;8164590;28;20412;-72
2021/07/13 04:55:40;;;;;;;17.25;9.35;;;;;;;;;;8166978;28;20334;-69
2021/07/13 04:59:45;;;;;;;18.67;9.80;;;;;;;;;;8164233;28;20473;-69
2021/07/13 05:03:50;;;;;;;15.82;8.90;;;;;;;;;;8164426;28;20378;-72
2021/07/13 05:07:55;;;;;;;22.75;9.32;;;;;;;;;;8161877;28;20358;-71
2021/07/13 05:12:00;;;;;;;13.98;8.85;;;;;;;;;;8163597;28;20449;-72
2021/07/13 05:16:06;;;;;;;14.55;8.65;;;;;;;;;;8164214;28;20673;-71
2021/07/13 05:20:14;;;;;;;14.05;8.13;;;;;;;;;;8164658;28;20381;-71
2021/07/13 05:24:19;;;;;;;15.02;8.88;;;;;;;;;;8167221;28;20477;-70
2021/07/13 05:28:24;;;;;;;13.65;7.70;;;;;;;;;;8164391;28;20401;-72
2021/07/13 05:32:29;;;;;;;12.63;6.72;;;;;;;;;;8163536;28;20354;-71
2021/07/13 05:36:34;;;;;;;11.18;6.95;;;;;;;;;;8165823;28;20043;-70
2021/07/13 05:40:45;;;;;;;11.93;6.68;;;;;;;;;;8163700;28;20378;-71
2021/07/13 05:44:50;;;;;;;10.27;6.18;;;;;;;;;;8163415;28;20335;-72
2021/07/13 05:48:55;;;;;;;10.50;6.70;;;;;;;;;;8164888;28;20385;-70
2021/07/13 05:53:01;;;;;;;14.48;7.00;;;;;;;;;;8162180;28;20054;-70
2021/07/13 05:57:07;;;;;;;10.35;7.05;;;;;;;;;;8162256;28;20477;-70
2021/07/13 06:01:12;;;;;;;8.38;5.65;;;;;;;;;;8163403;28;20473;-69
2021/07/13 06:05:18;;;;;;;8.90;5.63;;;;;;;;;;8163712;28;20362;-69
2021/07/13 06:09:23;;;;;;;8.00;5.63;;;;;;;;;;8163896;28;20361;-71
2021/07/13 06:13:28;;;;;;;7.57;5.07;;;;;;;;;;8164562;28;21757;-69
2021/07/13 06:17:35;;;;;;;6.32;5.20;;;;;;;;;;8163498;28;20478;-71
2021/07/13 06:21:40;;;;;;;9.20;4.93;;;;;;;;;;8164796;28;20050;-70
2021/07/13 06:25:45;;;;;;;7.97;5.35;;;;;;;;;;8163711;28;20367;-70
2021/07/13 06:29:50;;;;;;;5.72;4.75;;;;;;;;;;8162173;28;20354;-71
2021/07/13 06:33:56;;;;;;;9.85;4.85;;;;;;;;;;8163265;28;20077;-70
2021/07/13 06:38:02;;;;;;;8.18;4.85;;;;;;;;;;8162759;28;20369;-69
2021/07/13 06:42:08;;;;;;;6.77;4.80;;;;;;;;;;8160121;28;20062;-70
2021/07/13 06:46:13;;;;;;;6.22;4.35;;;;;;;;;;8141810;28;20050;-70
2021/07/13 06:50:18;;;;;;;5.40;4.00;;;;;;;;;;8163055;28;20042;-70
2021/07/13 06:54:23;;;;;;;7.72;4.70;;;;;;;;;;8164598;28;20361;-71
2021/07/13 06:58:29;;;;;;;6.38;4.18;;;;;;;;;;8160710;28;20335;-70
2021/07/13 07:02:34;;;;;;;5.47;3.97;;;;;;;;;;8156727;28;20050;-70
2021/07/13 07:06:39;;;;;;;8.60;4.68;;;;;;;;;;8158267;28;20377;-70
2021/07/13 07:10:44;;;;;;;6.88;3.72;;;;;;;;;;8157972;28;20588;-71
2021/07/13 07:14:50;;;;;;;5.57;3.67;;;;;;;;;;8161418;28;20474;-71
2021/07/13 07:18:55;;;;;;;5.10;3.72;;;;;;;;;;8162629;28;20442;-71
2021/07/13 07:23:01;;;;;;;5.18;3.90;;;;;;;;;;8163696;28;20495;-70
2021/07/13 07:27:06;;;;;;;5.43;3.67;;;;;;;;;;8162257;28;20370;-71
2021/07/13 07:31:11;;;;;;;5.32;3.42;;;;;;;;;;8162300;28;20042;-71
2021/07/13 07:35:17;;;;;;;4.55;3.67;;;;;;;;;;8162440;28;20054;-71
2021/07/13 07:39:23;;;;;;;4.68;3.60;;;;;;;;;;8159442;28;20499;-71
2021/07/13 07:43:28;;;;;;;6.57;3.47;;;;;;;;;;8162263;28;20062;-71
2021/07/13 07:47:34;;;;;;;5.35;3.40;;;;;;;;;;8159554;28;20068;-71
2021/07/13 07:51:39;;;;;;;5.68;3.42;;;;;;;;;;8156791;28;20374;-71
2021/07/13 07:55:44;;;;;;;6.68;3.85;;;;;;;;;;8161823;28;20370;-70
2021/07/13 07:59:50;;;;;;;6.13;3.30;;;;;;;;;;8156446;28;20484;-70
2021/07/13 08:03:55;;;;;;;4.13;2.97;;;;;;;;;;8160004;28;20373;-70
2021/07/13 08:08:00;;;;;;;7.85;3.72;;;;;;;;;;8159823;28;20517;-73
2021/07/13 08:12:06;;;;;;;4.78;3.22;;;;;;;;;;8160983;28;20370;-70
2021/07/13 08:16:11;;;;;;;4.72;3.63;;;;;;;;;;8149650;28;20381;-70
2021/07/13 08:20:17;;;;;;;6.40;3.40;;;;;;;;;;8165769;28;20065;-69
2021/07/13 08:24:22;;;;;;;4.40;3.42;;;;;;;;;;8165674;28;20507;-71
2021/07/13 08:28:27;;;;;;;5.18;3.63;;;;;;;;;;8180035;28;20517;-71
2021/07/13 08:32:33;;;;;;;6.03;3.75;;;;;;;;;;8165588;28;20370;-70
2021/07/13 08:36:39;;;;;;;6.60;3.97;;;;;;;;;;8148971;28;20471;-71
2021/07/13 08:40:44;;;;;;;3.37;3.07;;;;;;;;;;8165743;28;20050;-69
2021/07/13 08:44:50;;;;;;;3.40;3.10;;;;;;;;;;8167932;28;20359;-67
2021/07/13 08:48:56;;;;;;;6.80;3.72;;;;;;;;;;8165483;28;20369;-68
2021/07/13 08:53:01;;;;;;;;;;;;;;;;;;8163322;28;20358;-67
2021/07/13 08:57:10;;;;;;;4.97;3.10;;;;;;;;;;8166116;28;19944;-71
2021/07/13 09:01:16;;;;;;;4.13;3.00;;;;;;;;;;8163960;28;20370;-70
2021/07/13 09:05:22;;;;;;;4.72;3.53;;;;;;;;;;8164671;28;20465;-71
2021/07/13 09:09:48;;;;;;;6.28;3.75;;;;;;;;;;8165339;28;20042;-71
2021/07/13 09:13:59;;;;;;;4.65;3.58;;;;;;;;;;8162750;28;20042;-71
2021/07/13 09:18:04;;;;;;;7.85;3.78;;;;;;;;;;8164951;28;20042;-71
2021/07/13 09:22:09;;;;;;;5.82;3.35;;;;;;;;;;8164222;28;20369;-71
2021/07/13 09:26:36;;;;;;;4.28;3.45;;;;;;;;;;8131459;28;20377;-71
2021/07/13 09:30:52;;;;;;;4.30;3.58;;;;;;;;;;8165558;28;20357;-70
2021/07/13 09:35:07;;;;;;;5.13;3.85;;;;;;;;;;8164089;28;20346;-70
2021/07/13 09:39:22;;;;;;;6.78;3.95;;;;;;;;;;8068796;28;20488;-70
2021/07/13 09:43:39;;;;;;;6.32;3.95;;;;;;;;;;8165141;28;20366;-70
2021/07/13 09:47:45;;;;;;;6.38;3.95;;;;;;;;;;8163761;28;20046;-73
2021/07/13 09:52:02;;;;;;;6.97;3.88;;;;;;;;;;8161922;28;20350;-69
2021/07/13 09:56:06;;;;;;;4.57;3.70;;;;;;;;;;8163487;28;20492;-71
2021/07/13 10:00:12;;;;;;;6.38;4.38;;;;;;;;;;8164014;28;20347;-71
2021/07/13 10:04:22;;;;;;;6.38;3.88;;;;;;;;;;8129084;28;20485;-70
2021/07/13 10:08:28;;;;;;;5.53;3.92;;;;;;;;;;8161961;28;20464;-71
2021/07/13 10:12:33;;;;;;;8.80;3.88;;;;;;;;;;8126943;28;20053;-70
2021/07/13 10:16:39;;;;;;;5.25;3.92;;;;;;;;;;8164973;28;20042;-70
2021/07/13 10:20:45;;;;;;;5.40;4.28;;;;;;;;;;8160928;28;20397;-70
2021/07/13 10:24:55;;;;;;;7.22;3.78;;;;;;;;;;8161579;28;20406;-70
2021/07/13 10:29:02;;;;;;;5.68;4.32;;;;;;;;;;8163509;28;20485;-70
2021/07/13 10:33:38;;;;;;;6.78;4.18;;;;;;;;;;8162058;28;20430;-70
2021/07/13 10:37:46;;;;;;;6.43;3.85;;;;;;;;;;8163304;28;20469;-70
2021/07/13 10:41:51;;;;;;;6.00;4.10;;;;;;;;;;8145711;28;20346;-71
2021/07/13 10:46:11;;;;;;;6.65;3.78;;;;;;;;;;8160861;28;20454;-71
2021/07/13 10:50:17;;;;;;;5.75;4.00;;;;;;;;;;8176198;28;20358;-71
2021/07/13 10:54:38;;;;;;;5.82;3.95;;;;;;;;;;8161908;28;20441;-69
2021/07/13 10:58:49;;;;;;;5.22;3.60;;;;;;;;;;8159702;28;20480;-68
2021/07/13 11:02:54;;;;;;;5.45;3.97;;;;;;;;;;8162681;28;20505;-69
2021/07/13 11:06:59;;;;;;;6.38;3.13;;;;;;;;;;8161337;28;20064;-69
2021/07/13 11:11:04;;;;;;;3.95;3.33;;;;;;;;;;8161730;28;20475;-68
2021/07/13 11:15:10;;;;;;;5.55;3.22;;;;;;;;;;8164072;28;20038;-69
2021/07/13 11:19:16;;;;;;;5.22;4.00;;;;;;;;;;8162845;28;20084;-68
2021/07/13 11:23:29;;;;;;;6.53;3.45;;;;;;;;;;8176598;28;20465;-69
2021/07/13 11:27:35;;;;;;;5.15;3.40;;;;;;;;;;8159504;28;20355;-70
2021/07/13 11:31:40;;;;;;;4.32;3.38;;;;;;;;;;8161355;28;20464;-69
2021/07/13 11:36:03;;;;;;;9.23;3.47;;;;;;;;;;8160890;28;20038;-71
2021/07/13 11:40:08;;;;;;;5.50;4.10;;;;;;;;;;8160457;28;20444;-70
2021/07/13 11:44:13;;;;;;;4.50;3.80;;;;;;;;;;8159199;28;20069;-70
2021/07/13 11:48:24;;;;;;;10.82;4.50;;;;;;;;;;8160836;28;20979;-70
2021/07/13 11:52:29;;;;;;;11.93;4.50;;;;;;;;;;8167291;28;20073;-72
2021/07/13 11:56:35;;;;;;;5.55;4.18;;;;;;;;;;8133218;28;20047;-71
2021/07/13 12:00:40;;;;;;;5.97;4.00;;;;;;;;;;8137093;28;20462;-70
2021/07/13 12:04:50;;;;;;;5.45;3.78;;;;;;;;;;8149079;28;20365;-71
2021/07/13 12:09:01;;;;;;;5.35;3.63;;;;;;;;;;8133171;28;20367;-72
2021/07/13 12:13:07;;;;;;;5.65;3.50;;;;;;;;;;8133210;28;20065;-69
2021/07/13 12:17:12;;;;;;;4.28;3.85;;;;;;;;;;8134313;28;20047;-69
2021/07/13 12:21:19;;;;;;;9.93;4.00;;;;;;;;;;8133564;28;20446;-71
2021/07/13 12:25:33;;;;;;;7.05;4.20;;;;;;;;;;8133464;28;20360;-70
2021/07/13 12:29:53;;;;;;;5.68;3.90;;;;;;;;;;8132084;28;20458;-72
2021/07/13 12:34:00;;;;;;;6.10;3.60;;;;;;;;;;8134626;28;20381;-71
2021/07/13 12:38:11;;;;;;;7.32;3.78;;;;;;;;;;8132008;28;20058;-71
2021/07/13 12:42:23;;;;;;;7.63;4.22;;;;;;;;;;8135358;28;20054;-71
2021/07/13 12:46:32;;;;;;;4.95;3.70;;;;;;;;;;8117778;28;20353;-71
2021/07/13 12:50:47;;;;;;;5.75;3.70;;;;;;;;;;8117392;28;20402;-71
2021/07/13 12:54:59;;;;;;;4.43;3.80;;;;;;;;;;8150678;28;20489;-71
2021/07/13 12:59:09;;;;;;;4.32;3.55;;;;;;;;;;8163129;28;20096;-71
2021/07/13 13:03:22;;;;;;;5.15;3.30;;;;;;;;;;8163156;28;20492;-70
2021/07/13 13:07:26;;;;;;;6.32;3.75;;;;;;;;;;8165844;28;20350;-70
2021/07/13 13:11:35;;;;;;;5.10;2.85;;;;;;;;;;8163617;28;20073;-71
2021/07/13 13:15:40;;;;;;;4.50;3.30;;;;;;;;;;8162645;28;20047;-70
2021/07/13 13:19:46;;;;;;;4.50;3.40;;;;;;;;;;8165787;28;20042;-70
2021/07/13 13:23:57;;;;;;;6.65;3.33;;;;;;;;;;8142100;28;20376;-71
2021/07/13 13:28:05;;;;;;;4.85;3.45;;;;;;;;;;8205009;28;20491;-69
2021/07/13 13:32:10;;;;;;;5.38;3.22;;;;;;;;;;8198042;28;20453;-70
2021/07/13 13:36:18;;;;;;;8.52;3.65;;;;;;;;;;8197983;28;20480;-71
2021/07/13 13:40:23;;;;;;;5.60;3.42;;;;;;;;;;8199780;28;20445;-69
2021/07/13 13:44:29;;;;;;;5.07;3.50;;;;;;;;;;8197471;28;20534;-71
2021/07/13 13:48:33;;;;;;;5.38;3.65;;;;;;;;;;8194117;28;20457;-70
2021/07/13 13:52:38;;;;;;;4.72;3.33;;;;;;;;;;8209535;28;20389;-71
2021/07/13 13:56:42;;;;;;;4.82;3.33;;;;;;;;;;8098792;28;20135;-70
2021/07/13 14:00:47;;;;;;;5.22;3.17;;;;;;;;;;8164794;28;20046;-70
2021/07/13 14:04:53;;;;;;;13.75;3.78;;;;;;;;;;8162626;28;20497;-71
2021/07/13 14:09:01;;;;;;;4.55;3.55;;;;;;;;;;8192752;28;20503;-69
2021/07/13 14:13:06;;;;;;;7.25;4.03;;;;;;;;;;8176134;28;20458;-70
2021/07/13 14:17:12;;;;;;;5.07;3.60;;;;;;;;;;8194325;28;20474;-70
2021/07/13 14:21:17;;;;;;;4.90;3.22;;;;;;;;;;8140542;28;20512;-70
2021/07/13 14:25:22;;;;;;;3.72;2.80;;;;;;;;;;8164202;28;20489;-70
2021/07/13 14:29:28;;;;;;;4.60;3.20;;;;;;;;;;8162550;28;20522;-70
2021/07/13 14:33:34;;;;;;;7.25;3.60;;;;;;;;;;8160315;28;20476;-73
2021/07/13 14:37:40;;;;;;;7.55;2.88;;;;;;;;;;8161884;28;20384;-73
2021/07/13 14:41:45;;;;;;;5.20;3.15;;;;;;;;;;8161974;28;20484;-71
2021/07/13 14:45:51;;;;;;;5.85;3.25;;;;;;;;;;8162430;28;20481;-70
2021/07/13 14:49:56;;;;;;;4.70;3.10;;;;;;;;;;8161081;28;20492;-69
2021/07/13 14:54:02;;;;;;;5.68;2.55;;;;;;;;;;8161294;28;20354;-70
2021/07/13 14:58:07;;;;;;;5.57;3.10;;;;;;;;;;8182651;28;20065;-70
2021/07/13 15:02:13;;;;;;;5.05;3.22;;;;;;;;;;8192750;28;20046;-70
2021/07/13 15:06:18;;;;;;;7.50;2.60;;;;;;;;;;8194633;28;20484;-70
2021/07/13 15:10:23;;;;;;;5.13;2.90;;;;;;;;;;8194718;28;20409;-72
2021/07/13 15:14:28;;;;;;;7.47;2.97;;;;;;;;;;8193293;28;20495;-70
2021/07/13 15:18:33;;;;;;;6.00;3.50;;;;;;;;;;8193187;28;20469;-71
2021/07/13 15:22:39;;;;;;;4.00;3.25;;;;;;;;;;8195425;28;20469;-70
2021/07/13 15:26:45;;;;;;;7.57;2.97;;;;;;;;;;8192282;28;20373;-70
2021/07/13 15:30:51;;;;;;;4.35;3.38;;;;;;;;;;8192068;28;20473;-71
2021/07/13 15:34:59;;;;;;;6.45;3.30;;;;;;;;;;8192483;28;20385;-70
2021/07/13 15:39:05;;;;;;;4.05;3.03;;;;;;;;;;8192761;28;20049;-70
2021/07/13 15:43:11;;;;;;;5.95;3.55;;;;;;;;;;8207300;28;20376;-70
2021/07/13 15:47:17;;;;;;;7.75;3.38;;;;;;;;;;8192620;28;20473;-70
2021/07/13 15:51:23;;;;;;;6.18;3.05;;;;;;;;;;8191195;28;20499;-70
2021/07/13 15:55:29;;;;;;;3.53;2.85;;;;;;;;;;8192634;28;20420;-69
2021/07/13 15:59:36;;;;;;;3.55;3.03;;;;;;;;;;8207244;28;20346;-70
2021/07/13 16:03:41;;;;;;;4.50;3.15;;;;;;;;;;8139466;28;20489;-70
2021/07/13 16:07:46;;;;;;;3.50;2.78;;;;;;;;;;8205398;28;20068;-69
2021/07/13 16:11:53;;;;;;;4.43;3.50;;;;;;;;;;8191941;28;20600;-70
2021/07/13 16:15:58;;;;;;;7.60;2.93;;;;;;;;;;8136867;28;20364;-70
2021/07/13 16:20:03;;;;;;;10.15;4.22;;;;;;;;;;8191687;28;20481;-71
2021/07/13 16:24:09;;;;;;;3.92;3.47;;;;;;;;;;8140160;28;20132;-69
2021/07/13 16:28:14;;;;;;;5.68;3.65;;;;;;;;;;8192285;28;20358;-71
2021/07/13 16:32:19;;;;;;;8.25;4.07;;;;;;;;;;8192693;28;20108;-70
2021/07/13 16:36:23;;;;;;;6.90;4.05;;;;;;;;;;8195607;28;20503;-69
2021/07/13 16:40:30;;;;;;;5.57;3.58;;;;;;;;;;8197694;28;20364;-70
2021/07/13 16:44:35;;;;;;;8.20;3.92;;;;;;;;;;8195673;28;20358;-70
2021/07/13 16:48:41;;;;;;;6.03;4.38;;;;;;;;;;8197317;28;20461;-71
2021/07/13 16:52:48;;;;;;;8.52;4.22;;;;;;;;;;8197165;28;20481;-70
2021/07/13 16:56:56;;;;;;;7.13;3.97;;;;;;;;;;8196858;28;20457;-70
2021/07/13 17:01:04;;;;;;;7.43;4.22;;;;;;;;;;8195344;28;20485;-70
2021/07/13 17:05:10;;;;;;;5.22;4.05;;;;;;;;;;8198292;28;20457;-71
2021/07/13 17:09:16;;;;;;;9.63;4.15;;;;;;;;;;8195318;28;20485;-70
2021/07/13 17:13:21;;;;;;;8.88;4.82;;;;;;;;;;8197158;28;20349;-72
2021/07/13 17:17:27;;;;;;;11.30;4.70;;;;;;;;;;8198321;28;20061;-71
2021/07/13 17:21:32;;;;;;;6.97;4.47;;;;;;;;;;8193919;28;20076;-70
2021/07/13 17:25:38;;;;;;;6.57;4.22;;;;;;;;;;8196177;28;20405;-71
2021/07/13 17:29:44;;;;;;;29.52;17.23;;;;;;;;;;8196656;28;20384;-70
2021/07/13 17:33:49;;;;;;;15.20;7.30;;;;;;;;;;8197665;28;20461;-70
2021/07/13 17:37:54;;;;;;;10.85;7.97;;;;;;;;;;8196198;28;20353;-70
2021/07/13 17:41:59;;;;;;;9.65;5.50;;;;;;;;;;8194008;28;20393;-71
2021/07/13 17:46:05;;;;;;;10.30;4.80;;;;;;;;;;8196662;28;20038;-71
2021/07/13 17:50:11;;;;;;;10.07;5.07;;;;;;;;;;8196461;28;20381;-70
2021/07/13 17:54:16;;;;;;;7.50;4.75;;;;;;;;;;8194739;28;20374;-70
2021/07/13 17:58:21;;;;;;;8.40;4.65;;;;;;;;;;8194725;28;20436;-70
2021/07/13 18:02:26;;;;;;;6.90;4.45;;;;;;;;;;8195002;28;20056;-71
2021/07/13 18:06:33;;;;;;;6.75;4.80;;;;;;;;;;8152654;28;20359;-70
2021/07/13 18:10:38;;;;;;;9.17;5.40;;;;;;;;;;8165303;28;20377;-70
2021/07/13 18:14:43;;;;;;;6.38;4.88;;;;;;;;;;8163955;28;20442;-71
2021/07/13 18:18:49;;;;;;;8.77;5.53;;;;;;;;;;8162124;28;20374;-69
2021/07/13 18:22:54;;;;;;;9.18;5.75;;;;;;;;;;8161830;28;20345;-69
2021/07/13 18:26:59;;;;;;;6.50;5.40;;;;;;;;;;8176301;28;20512;-70
2021/07/13 18:31:05;;;;;;;9.65;5.10;;;;;;;;;;8159268;28;20388;-70
2021/07/13 18:35:11;;;;;;;7.25;5.82;;;;;;;;;;8161869;28;20469;-71
2021/07/13 18:39:17;;;;;;;9.40;6.03;;;;;;;;;;8162044;28;20046;-69
2021/07/13 18:43:22;;;;;;;6.35;5.15;;;;;;;;;;8162603;28;20488;-70
2021/07/13 18:47:28;;;;;;;6.82;5.25;;;;;;;;;;8160341;28;20351;-70
2021/07/13 18:51:33;;;;;;;10.98;5.63;;;;;;;;;;8161864;28;20050;-70
2021/07/13 18:55:40;;;;;;;8.20;5.55;;;;;;;;;;8175561;28;20054;-70
2021/07/13 18:59:45;;;;;;;;;;;;;;;;;;8144309;28;20469;-71
2021/07/13 19:03:50;;;;;;;7.47;4.93;;;;;;;;;;8159662;28;20338;-70
2021/07/13 19:07:55;;;;;;;9.48;6.07;;;;;;;;;;8160992;28;20042;-69
2021/07/13 19:12:01;;;;;;;7.22;6.07;;;;;;;;;;8141282;28;20362;-70
2021/07/13 19:16:07;;;;;;;9.90;6.10;;;;;;;;;;8170462;28;20393;-70
2021/07/13 19:20:12;;;;;;;8.70;6.00;;;;;;;;;;8160368;28;20058;-71
2021/07/13 19:24:16;;;;;;;11.40;6.07;;;;;;;;;;8160756;28;20397;-70
2021/07/13 19:28:21;;;;;;;8.52;5.93;;;;;;;;;;8161996;28;20382;-71
2021/07/13 19:32:29;;;;;;;10.23;5.32;;;;;;;;;;8157523;28;20046;-71
2021/07/13 19:40:59;;;;;;;6.90;5.25;;;;;;;;;;8160405;28;20492;-70
2021/07/13 19:45:07;;;;;;;9.93;6.15;;;;;;;;;;8160179;28;20491;-70
2021/07/13 19:49:12;;;;;;;7.88;5.97;;;;;;;;;;8162832;28;20445;-70
2021/07/13 19:53:17;;;;;;;8.15;6.47;;;;;;;;;;8157661;28;20374;-70
2021/07/13 19:57:24;;;;;;;8.75;6.63;;;;;;;;;;8161026;28;20500;-72
2021/07/13 20:01:30;;;;;;;14.00;6.93;;;;;;;;;;8160359;28;20377;-70
2021/07/13 20:05:35;;;;;;;11.73;7.22;;;;;;;;;;8158958;28;20472;-71
2021/07/13 20:09:41;;;;;;;7.25;5.72;;;;;;;;;;8158609;28;20050;-70
2021/07/13 20:13:47;;;;;;;10.15;6.78;;;;;;;;;;8147708;28;20065;-71
2021/07/13 20:17:51;;;;;;;11.95;5.97;;;;;;;;;;8165165;28;20496;-70
2021/07/13 20:21:57;;;;;;;7.80;6.05;;;;;;;;;;8167618;28;20480;-71
2021/07/13 20:26:02;;;;;;;10.07;5.80;;;;;;;;;;8166639;28;20466;-71
2021/07/13 20:30:09;;;;;;;10.30;6.78;;;;;;;;;;8180794;28;20442;-70
2021/07/13 20:34:14;;;;;;;12.13;6.85;;;;;;;;;;8167230;28;20689;-70
2021/07/13 20:38:20;;;;;;;9.57;6.82;;;;;;;;;;8165679;28;20365;-70
2021/07/13 20:42:25;;;;;;;9.68;7.10;;;;;;;;;;8164031;28;20364;-70
2021/07/13 20:46:32;;;;;;;9.38;6.63;;;;;;;;;;8163376;28;20387;-70
2021/07/13 20:50:38;;;;;;;9.23;6.53;;;;;;;;;;8165568;28;20084;-70
2021/07/13 20:54:43;;;;;;;15.52;6.43;;;;;;;;;;8162531;28;20381;-70
2021/07/13 20:58:49;;;;;;;9.88;6.75;;;;;;;;;;8163228;28;20470;-70
2021/07/13 21:02:54;;;;;;;14.85;7.25;;;;;;;;;;8164786;28;20413;-70
2021/07/13 21:07:01;;;;;;;9.88;6.55;;;;;;;;;;8165155;28;20488;-71
2021/07/13 21:11:06;;;;;;;8.23;6.30;;;;;;;;;;8178461;28;20074;-69
2021/07/13 21:15:12;;;;;;;10.18;6.45;;;;;;;;;;8164951;28;20468;-69
2021/07/13 21:19:18;;;;;;;8.93;6.53;;;;;;;;;;8166325;28;20072;-69
2021/07/13 21:23:23;;;;;;;13.52;6.75;;;;;;;;;;8178380;28;20512;-70
2021/07/13 21:27:28;;;;;;;7.43;6.25;;;;;;;;;;8179978;28;20343;-69
2021/07/13 21:31:31;;;;;;;13.38;7.05;;;;;;;;;;8178727;28;20512;-70
2021/07/13 21:35:37;;;;;;;12.23;7.10;;;;;;;;;;8164931;28;20462;-71
2021/07/13 21:39:42;;;;;;;12.02;7.55;;;;;;;;;;8164072;28;20039;-70
2021/07/13 21:43:48;;;;;;;10.40;7.18;;;;;;;;;;8162771;28;20366;-69
2021/07/13 21:47:54;;;;;;;11.88;6.97;;;;;;;;;;8178228;28;20708;-70
2021/07/13 21:51:59;;;;;;;6.85;5.90;;;;;;;;;;8163505;28;20401;-70
2021/07/13 21:56:05;;;;;;;8.57;6.70;;;;;;;;;;8162048;28;20354;-70
2021/07/13 22:00:21;;;;;;;13.02;7.30;;;;;;;;;;8164474;28;20489;-69
2021/07/13 22:04:27;;;;;;;10.45;6.10;;;;;;;;;;8164651;28;20334;-70
2021/07/13 22:08:34;;;;;;;11.00;7.03;;;;;;;;;;8166100;28;20478;-70
2021/07/13 22:12:40;;;;;;;10.95;6.80;;;;;;;;;;8178409;28;20054;-70
2021/07/13 22:16:46;;;;;;;9.18;6.00;;;;;;;;;;8164360;28;20327;-70
2021/07/13 22:20:51;;;;;;;9.93;6.90;;;;;;;;;;8163262;28;20438;-70
2021/07/13 22:24:56;;;;;;;9.77;6.78;;;;;;;;;;8162133;28;20466;-71
2021/07/13 22:29:02;;;;;;;11.30;6.55;;;;;;;;;;8177247;28;20378;-70
2021/07/13 22:33:07;;;;;;;10.52;6.68;;;;;;;;;;8161312;28;20466;-69
2021/07/13 22:37:13;;;;;;;13.05;6.60;;;;;;;;;;8162952;28;20038;-69
2021/07/13 22:41:18;;;;;;;9.55;7.07;;;;;;;;;;8161737;28;20482;-70
2021/07/13 22:45:23;;;;;;;9.10;6.70;;;;;;;;;;8160471;28;20042;-70
2021/07/13 22:49:28;;;;;;;9.32;6.57;;;;;;;;;;8176094;28;20393;-70
2021/07/13 22:53:32;;;;;;;12.95;7.00;;;;;;;;;;8161128;28;20402;-71
2021/07/13 22:57:39;;;;;;;17.55;7.03;;;;;;;;;;8162237;28;20512;-70
2021/07/13 23:01:45;;;;;;;10.88;7.50;;;;;;;;;;8161842;28;20465;-71
2021/07/13 23:05:51;;;;;;;9.20;6.75;;;;;;;;;;8161420;28;20461;-70
2021/07/13 23:09:56;;;;;;;11.25;6.93;;;;;;;;;;8162307;28;20065;-69
2021/07/13 23:14:01;;;;;;;16.25;7.63;;;;;;;;;;8177052;28;20469;-70
2021/07/13 23:18:10;;;;;;;9.65;7.05;;;;;;;;;;8161528;28;20495;-70
2021/07/13 23:22:19;;;;;;;12.40;6.88;;;;;;;;;;8161155;28;20512;-69
2021/07/13 23:26:24;;;;;;;8.45;6.63;;;;;;;;;;8160431;28;20354;-70
2021/07/13 23:30:30;;;;;;;9.25;7.10;;;;;;;;;;8162362;28;21091;-70
2021/07/13 23:34:38;;;;;;;17.23;7.47;;;;;;;;;;8160622;28;20050;-70
2021/07/13 23:38:42;;;;;;;9.43;7.35;;;;;;;;;;8159577;28;20357;-70
2021/07/13 23:42:47;;;;;;;10.88;7.30;;;;;;;;;;8160699;28;20520;-69
2021/07/13 23:46:52;;;;;;;13.57;7.82;;;;;;;;;;8160265;28;20497;-70
2021/07/13 23:50:58;;;;;;;9.75;7.05;;;;;;;;;;8175468;28;20434;-69
2021/07/13 23:55:06;;;;;;;9.95;6.93;;;;;;;;;;8159619;28;20062;-69
2021/07/13 23:59:10;;;;;;;9.53;7.43;;;;;;;;;;8159680;28;20564;-69
